sensor_id;sensor_type;location;lat;lon;timestamp;temperature;humidity
10572;DHT22;5334;48.928;12.704;2022-12-29T00:01:40;4.20;99.90
10572;DHT22;5334;48.928;12.704;2022-12-29T00:04:06;4.20;99.90
10572;DHT22;5334;48.928;12.704;2022-12-29T00:06:32;4.30;99.90
10572;DHT22;5334;48.928;12.704;2022-12-29T00:08:58;4.60;99.90
10572;DHT22;5334;48.928;12.704;2022-12-29T00:11:26;4.30;99.90
10572;DHT22;5334;48.928;12.704;2022-12-29T00:13:54;4.30;99.90
10572;DHT22;5334;48.928;12.704;2022-12-29T00:16:41;4.30;99.90
10572;DHT22;5334;48.928;12.704;2022-12-29T00:19:06;4.40;99.90
10572;DHT22;5334;48.928;12.704;2022-12-29T00:21:52;4.40;99.90
10572;DHT22;5334;48.928;12.704;2022-12-29T00:24:36;4.50;99.90
10572;DHT22;5334;48.928;12.704;2022-12-29T00:29:46;4.50;99.90
10572;DHT22;5334;48.928;12.704;2022-12-29T00:32:30;4.40;99.90
10572;DHT22;5334;48.928;12.704;2022-12-29T00:35:22;4.50;99.90
10572;DHT22;5334;48.928;12.704;2022-12-29T00:37:48;4.50;99.90
10572;DHT22;5334;48.928;12.704;2022-12-29T00:40:32;4.50;99.90
10572;DHT22;5334;48.928;12.704;2022-12-29T00:43:17;4.50;99.90
10572;DHT22;5334;48.928;12.704;2022-12-29T00:46:01;4.50;99.90
10572;DHT22;5334;48.928;12.704;2022-12-29T00:48:26;4.50;99.90
10572;DHT22;5334;48.928;12.704;2022-12-29T00:51:10;4.50;99.90
10572;DHT22;5334;48.928;12.704;2022-12-29T00:53:36;4.30;99.90
10572;DHT22;5334;48.928;12.704;2022-12-29T00:56:01;4.30;99.90
10572;DHT22;5334;48.928;12.704;2022-12-29T00:58:28;4.20;99.90
10572;DHT22;5334;48.928;12.704;2022-12-29T01:01:03;4.20;99.90
10572;DHT22;5334;48.928;12.704;2022-12-29T01:03:29;4.20;99.90
10572;DHT22;5334;48.928;12.704;2022-12-29T01:05:55;4.30;99.90
10572;DHT22;5334;48.928;12.704;2022-12-29T01:08:20;4.30;99.90
10572;DHT22;5334;48.928;12.704;2022-12-29T01:10:46;4.40;99.90
10572;DHT22;5334;48.928;12.704;2022-12-29T01:13:12;4.40;99.90
10572;DHT22;5334;48.928;12.704;2022-12-29T01:15:37;4.40;99.90
10572;DHT22;5334;48.928;12.704;2022-12-29T01:18:03;4.30;99.90
10572;DHT22;5334;48.928;12.704;2022-12-29T01:20:29;4.30;99.90
10572;DHT22;5334;48.928;12.704;2022-12-29T01:22:54;4.20;99.90
10572;DHT22;5334;48.928;12.704;2022-12-29T01:25:20;4.30;99.90
10572;DHT22;5334;48.928;12.704;2022-12-29T01:27:46;4.40;99.90
10572;DHT22;5334;48.928;12.704;2022-12-29T01:30:12;4.40;99.90
10572;DHT22;5334;48.928;12.704;2022-12-29T01:32:37;4.40;99.90
10572;DHT22;5334;48.928;12.704;2022-12-29T01:35:03;4.40;99.90
10572;DHT22;5334;48.928;12.704;2022-12-29T01:37:29;4.40;99.90
10572;DHT22;5334;48.928;12.704;2022-12-29T01:39:55;4.40;99.90
10572;DHT22;5334;48.928;12.704;2022-12-29T01:42:24;4.40;99.90
10572;DHT22;5334;48.928;12.704;2022-12-29T01:44:55;4.40;99.90
10572;DHT22;5334;48.928;12.704;2022-12-29T01:47:30;4.30;99.90
10572;DHT22;5334;48.928;12.704;2022-12-29T01:52:26;4.10;99.90
10572;DHT22;5334;48.928;12.704;2022-12-29T01:54:55;4.10;99.90
10572;DHT22;5334;48.928;12.704;2022-12-29T01:57:27;4.00;99.90
10572;DHT22;5334;48.928;12.704;2022-12-29T02:00:15;4.00;99.90
10572;DHT22;5334;48.928;12.704;2022-12-29T02:02:52;4.60;99.90
10572;DHT22;5334;48.928;12.704;2022-12-29T02:07:52;3.90;99.90
10572;DHT22;5334;48.928;12.704;2022-12-29T02:10:20;3.90;99.90
10572;DHT22;5334;48.928;12.704;2022-12-29T02:12:47;3.90;99.90
10572;DHT22;5334;48.928;12.704;2022-12-29T02:15:14;3.90;99.90
10572;DHT22;5334;48.928;12.704;2022-12-29T02:26:13;3.90;99.90
10572;DHT22;5334;48.928;12.704;2022-12-29T02:37:22;4.10;99.90
10572;DHT22;5334;48.928;12.704;2022-12-29T02:39:50;4.00;99.90
10572;DHT22;5334;48.928;12.704;2022-12-29T02:42:22;4.00;99.90
10572;DHT22;5334;48.928;12.704;2022-12-29T02:45:05;3.90;99.90
10572;DHT22;5334;48.928;12.704;2022-12-29T02:47:52;4.00;99.90
10572;DHT22;5334;48.928;12.704;2022-12-29T02:50:27;4.10;99.90
10572;DHT22;5334;48.928;12.704;2022-12-29T02:53:01;4.10;99.90
10572;DHT22;5334;48.928;12.704;2022-12-29T02:55:27;4.10;99.90
10572;DHT22;5334;48.928;12.704;2022-12-29T03:00:42;4.20;99.90
10572;DHT22;5334;48.928;12.704;2022-12-29T03:03:23;4.30;99.90
10572;DHT22;5334;48.928;12.704;2022-12-29T03:12:14;4.40;99.90
10572;DHT22;5334;48.928;12.704;2022-12-29T03:20:35;4.50;99.90
10572;DHT22;5334;48.928;12.704;2022-12-29T03:23:03;4.60;99.90
10572;DHT22;5334;48.928;12.704;2022-12-29T03:25:35;4.60;99.90
10572;DHT22;5334;48.928;12.704;2022-12-29T03:28:06;4.50;99.90
10572;DHT22;5334;48.928;12.704;2022-12-29T03:30:34;4.50;99.90
10572;DHT22;5334;48.928;12.704;2022-12-29T03:33:04;4.60;99.90
10572;DHT22;5334;48.928;12.704;2022-12-29T03:35:32;4.60;99.90
10572;DHT22;5334;48.928;12.704;2022-12-29T03:38:07;4.60;99.90
10572;DHT22;5334;48.928;12.704;2022-12-29T03:40:37;4.60;99.90
10572;DHT22;5334;48.928;12.704;2022-12-29T03:43:04;4.60;99.90
10572;DHT22;5334;48.928;12.704;2022-12-29T03:45:30;4.60;99.90
10572;DHT22;5334;48.928;12.704;2022-12-29T03:47:56;4.60;99.90
10572;DHT22;5334;48.928;12.704;2022-12-29T03:50:21;4.60;99.90
10572;DHT22;5334;48.928;12.704;2022-12-29T03:52:47;4.60;99.90
10572;DHT22;5334;48.928;12.704;2022-12-29T03:55:13;4.60;99.90
10572;DHT22;5334;48.928;12.704;2022-12-29T03:57:38;4.60;99.90
10572;DHT22;5334;48.928;12.704;2022-12-29T04:00:05;4.60;99.90
10572;DHT22;5334;48.928;12.704;2022-12-29T04:02:31;4.60;99.90
10572;DHT22;5334;48.928;12.704;2022-12-29T04:04:57;4.50;99.90
10572;DHT22;5334;48.928;12.704;2022-12-29T04:07:23;4.40;99.90
10572;DHT22;5334;48.928;12.704;2022-12-29T04:09:48;4.30;99.90
10572;DHT22;5334;48.928;12.704;2022-12-29T04:12:14;4.30;99.90
10572;DHT22;5334;48.928;12.704;2022-12-29T04:14:40;4.30;99.90
10572;DHT22;5334;48.928;12.704;2022-12-29T04:17:06;4.30;99.90
10572;DHT22;5334;48.928;12.704;2022-12-29T04:19:32;4.20;99.90
10572;DHT22;5334;48.928;12.704;2022-12-29T04:21:57;4.20;99.90
10572;DHT22;5334;48.928;12.704;2022-12-29T04:24:23;4.30;99.90
10572;DHT22;5334;48.928;12.704;2022-12-29T04:26:49;4.30;99.90
10572;DHT22;5334;48.928;12.704;2022-12-29T04:29:14;4.30;99.90
10572;DHT22;5334;48.928;12.704;2022-12-29T04:31:40;4.30;99.90
10572;DHT22;5334;48.928;12.704;2022-12-29T04:34:06;4.30;99.90
10572;DHT22;5334;48.928;12.704;2022-12-29T04:36:32;4.40;99.90
10572;DHT22;5334;48.928;12.704;2022-12-29T04:38:57;4.50;99.90
10572;DHT22;5334;48.928;12.704;2022-12-29T04:41:23;4.50;99.90
10572;DHT22;5334;48.928;12.704;2022-12-29T04:43:49;4.50;99.90
10572;DHT22;5334;48.928;12.704;2022-12-29T04:46:15;4.60;99.90
10572;DHT22;5334;48.928;12.704;2022-12-29T04:48:41;4.60;99.90
10572;DHT22;5334;48.928;12.704;2022-12-29T04:51:06;4.50;99.90
10572;DHT22;5334;48.928;12.704;2022-12-29T04:53:32;4.60;99.90
10572;DHT22;5334;48.928;12.704;2022-12-29T04:55:57;4.70;99.90
10572;DHT22;5334;48.928;12.704;2022-12-29T04:58:23;4.70;99.90
10572;DHT22;5334;48.928;12.704;2022-12-29T05:00:50;4.70;99.90
10572;DHT22;5334;48.928;12.704;2022-12-29T05:03:17;4.70;99.90
10572;DHT22;5334;48.928;12.704;2022-12-29T05:05:42;4.70;99.90
10572;DHT22;5334;48.928;12.704;2022-12-29T05:08:08;4.70;99.90
10572;DHT22;5334;48.928;12.704;2022-12-29T05:10:34;4.60;99.90
10572;DHT22;5334;48.928;12.704;2022-12-29T05:13:00;4.60;99.90
10572;DHT22;5334;48.928;12.704;2022-12-29T05:15:26;4.60;99.90
10572;DHT22;5334;48.928;12.704;2022-12-29T05:17:52;4.60;99.90
10572;DHT22;5334;48.928;12.704;2022-12-29T05:20:18;4.50;99.90
10572;DHT22;5334;48.928;12.704;2022-12-29T05:22:44;4.50;99.90
10572;DHT22;5334;48.928;12.704;2022-12-29T05:25:10;4.50;99.90
10572;DHT22;5334;48.928;12.704;2022-12-29T05:27:36;4.50;99.90
10572;DHT22;5334;48.928;12.704;2022-12-29T05:30:02;4.50;99.90
10572;DHT22;5334;48.928;12.704;2022-12-29T05:32:27;4.50;99.90
10572;DHT22;5334;48.928;12.704;2022-12-29T05:34:53;4.60;99.90
10572;DHT22;5334;48.928;12.704;2022-12-29T05:37:19;4.60;99.90
10572;DHT22;5334;48.928;12.704;2022-12-29T05:39:44;4.60;99.90
10572;DHT22;5334;48.928;12.704;2022-12-29T05:42:10;4.70;99.90
10572;DHT22;5334;48.928;12.704;2022-12-29T05:44:36;4.70;99.90
10572;DHT22;5334;48.928;12.704;2022-12-29T05:47:02;4.70;99.90
10572;DHT22;5334;48.928;12.704;2022-12-29T05:49:28;4.70;99.90
10572;DHT22;5334;48.928;12.704;2022-12-29T05:51:53;4.70;99.90
10572;DHT22;5334;48.928;12.704;2022-12-29T05:54:19;4.70;99.90
10572;DHT22;5334;48.928;12.704;2022-12-29T05:56:45;4.70;99.90
10572;DHT22;5334;48.928;12.704;2022-12-29T05:59:10;4.70;99.90
10572;DHT22;5334;48.928;12.704;2022-12-29T06:01:36;4.80;99.90
10572;DHT22;5334;48.928;12.704;2022-12-29T06:04:02;4.80;99.90
10572;DHT22;5334;48.928;12.704;2022-12-29T06:06:27;4.80;99.90
10572;DHT22;5334;48.928;12.704;2022-12-29T06:08:53;4.80;99.90
10572;DHT22;5334;48.928;12.704;2022-12-29T06:11:19;4.80;99.90
10572;DHT22;5334;48.928;12.704;2022-12-29T06:13:44;4.80;99.90
10572;DHT22;5334;48.928;12.704;2022-12-29T06:16:10;4.90;99.90
10572;DHT22;5334;48.928;12.704;2022-12-29T06:18:36;4.90;99.90
10572;DHT22;5334;48.928;12.704;2022-12-29T06:21:03;4.90;99.90
10572;DHT22;5334;48.928;12.704;2022-12-29T06:23:29;4.90;99.90
10572;DHT22;5334;48.928;12.704;2022-12-29T06:25:54;4.90;99.90
10572;DHT22;5334;48.928;12.704;2022-12-29T06:28:20;4.90;99.90
10572;DHT22;5334;48.928;12.704;2022-12-29T06:30:46;4.90;99.90
10572;DHT22;5334;48.928;12.704;2022-12-29T06:33:13;4.90;99.90
10572;DHT22;5334;48.928;12.704;2022-12-29T06:35:39;4.80;99.90
10572;DHT22;5334;48.928;12.704;2022-12-29T06:38:04;4.80;99.90
10572;DHT22;5334;48.928;12.704;2022-12-29T06:40:31;4.80;99.90
10572;DHT22;5334;48.928;12.704;2022-12-29T06:42:56;4.80;99.90
10572;DHT22;5334;48.928;12.704;2022-12-29T06:45:22;4.80;99.90
10572;DHT22;5334;48.928;12.704;2022-12-29T06:47:48;4.80;99.90
10572;DHT22;5334;48.928;12.704;2022-12-29T06:50:13;4.80;99.90
10572;DHT22;5334;48.928;12.704;2022-12-29T06:52:39;4.80;99.90
10572;DHT22;5334;48.928;12.704;2022-12-29T06:55:05;4.80;99.90
10572;DHT22;5334;48.928;12.704;2022-12-29T06:57:31;4.80;99.90
10572;DHT22;5334;48.928;12.704;2022-12-29T06:59:57;4.80;99.90
10572;DHT22;5334;48.928;12.704;2022-12-29T07:02:23;4.80;99.90
10572;DHT22;5334;48.928;12.704;2022-12-29T07:04:51;4.90;99.90
10572;DHT22;5334;48.928;12.704;2022-12-29T07:07:18;4.90;99.90
10572;DHT22;5334;48.928;12.704;2022-12-29T07:09:44;4.90;99.90
10572;DHT22;5334;48.928;12.704;2022-12-29T07:12:09;4.90;99.90
10572;DHT22;5334;48.928;12.704;2022-12-29T07:14:35;4.90;99.90
10572;DHT22;5334;48.928;12.704;2022-12-29T07:17:01;5.00;99.90
10572;DHT22;5334;48.928;12.704;2022-12-29T07:19:30;5.00;99.90
10572;DHT22;5334;48.928;12.704;2022-12-29T07:21:56;5.00;99.90
10572;DHT22;5334;48.928;12.704;2022-12-29T07:24:22;5.00;99.90
10572;DHT22;5334;48.928;12.704;2022-12-29T07:26:47;5.10;99.90
10572;DHT22;5334;48.928;12.704;2022-12-29T07:29:13;5.10;99.90
10572;DHT22;5334;48.928;12.704;2022-12-29T07:31:39;5.20;99.90
10572;DHT22;5334;48.928;12.704;2022-12-29T07:34:04;5.20;99.90
10572;DHT22;5334;48.928;12.704;2022-12-29T07:36:30;5.30;99.90
10572;DHT22;5334;48.928;12.704;2022-12-29T07:38:56;5.40;99.90
10572;DHT22;5334;48.928;12.704;2022-12-29T07:41:21;5.50;99.90
10572;DHT22;5334;48.928;12.704;2022-12-29T07:43:47;5.50;99.90
10572;DHT22;5334;48.928;12.704;2022-12-29T07:46:14;5.50;99.90
10572;DHT22;5334;48.928;12.704;2022-12-29T07:48:40;5.60;99.90
10572;DHT22;5334;48.928;12.704;2022-12-29T07:51:05;5.60;99.90
10572;DHT22;5334;48.928;12.704;2022-12-29T07:53:32;5.70;99.90
10572;DHT22;5334;48.928;12.704;2022-12-29T07:55:57;5.70;99.90
10572;DHT22;5334;48.928;12.704;2022-12-29T07:58:23;5.70;99.90
10572;DHT22;5334;48.928;12.704;2022-12-29T08:00:53;5.80;99.90
10572;DHT22;5334;48.928;12.704;2022-12-29T08:03:19;5.80;99.90
10572;DHT22;5334;48.928;12.704;2022-12-29T08:05:45;5.80;99.90
10572;DHT22;5334;48.928;12.704;2022-12-29T08:08:11;5.90;99.90
10572;DHT22;5334;48.928;12.704;2022-12-29T08:10:36;5.90;99.90
10572;DHT22;5334;48.928;12.704;2022-12-29T08:13:02;5.90;99.90
10572;DHT22;5334;48.928;12.704;2022-12-29T08:15:28;5.90;99.90
10572;DHT22;5334;48.928;12.704;2022-12-29T08:17:53;6.00;99.90
10572;DHT22;5334;48.928;12.704;2022-12-29T08:20:19;6.10;99.90
10572;DHT22;5334;48.928;12.704;2022-12-29T08:22:45;6.10;99.90
10572;DHT22;5334;48.928;12.704;2022-12-29T08:25:10;6.10;99.90
10572;DHT22;5334;48.928;12.704;2022-12-29T08:27:36;6.10;99.90
10572;DHT22;5334;48.928;12.704;2022-12-29T08:30:02;6.10;99.90
10572;DHT22;5334;48.928;12.704;2022-12-29T08:32:28;6.10;99.90
10572;DHT22;5334;48.928;12.704;2022-12-29T08:34:54;6.20;99.90
10572;DHT22;5334;48.928;12.704;2022-12-29T08:37:19;6.20;99.90
10572;DHT22;5334;48.928;12.704;2022-12-29T08:39:46;6.20;99.90
10572;DHT22;5334;48.928;12.704;2022-12-29T08:42:12;6.30;99.90
10572;DHT22;5334;48.928;12.704;2022-12-29T08:44:37;6.30;99.90
10572;DHT22;5334;48.928;12.704;2022-12-29T08:47:03;6.40;99.90
10572;DHT22;5334;48.928;12.704;2022-12-29T08:49:29;6.40;99.90
10572;DHT22;5334;48.928;12.704;2022-12-29T08:51:54;6.50;99.90
10572;DHT22;5334;48.928;12.704;2022-12-29T08:54:20;6.50;99.90
10572;DHT22;5334;48.928;12.704;2022-12-29T08:56:46;6.70;99.90
10572;DHT22;5334;48.928;12.704;2022-12-29T08:59:11;6.80;99.90
10572;DHT22;5334;48.928;12.704;2022-12-29T09:01:37;6.70;99.90
10572;DHT22;5334;48.928;12.704;2022-12-29T09:04:05;6.80;99.90
10572;DHT22;5334;48.928;12.704;2022-12-29T09:06:31;6.90;99.90
10572;DHT22;5334;48.928;12.704;2022-12-29T09:08:57;7.00;99.90
10572;DHT22;5334;48.928;12.704;2022-12-29T09:11:24;7.10;99.90
10572;DHT22;5334;48.928;12.704;2022-12-29T09:13:50;7.20;99.90
10572;DHT22;5334;48.928;12.704;2022-12-29T09:16:16;7.40;99.90
10572;DHT22;5334;48.928;12.704;2022-12-29T09:18:43;7.60;99.90
10572;DHT22;5334;48.928;12.704;2022-12-29T09:21:10;7.70;99.90
10572;DHT22;5334;48.928;12.704;2022-12-29T09:23:37;7.60;99.90
10572;DHT22;5334;48.928;12.704;2022-12-29T09:26:03;7.60;99.90
10572;DHT22;5334;48.928;12.704;2022-12-29T09:28:29;7.50;99.90
10572;DHT22;5334;48.928;12.704;2022-12-29T09:30:56;7.50;99.90
10572;DHT22;5334;48.928;12.704;2022-12-29T09:33:22;7.50;99.90
10572;DHT22;5334;48.928;12.704;2022-12-29T09:35:53;7.40;99.90
10572;DHT22;5334;48.928;12.704;2022-12-29T09:38:19;7.40;99.90
10572;DHT22;5334;48.928;12.704;2022-12-29T09:40:50;7.50;99.90
10572;DHT22;5334;48.928;12.704;2022-12-29T09:51:52;9.10;99.90
10572;DHT22;5334;48.928;12.704;2022-12-29T09:57:49;9.70;99.90
10572;DHT22;5334;48.928;12.704;2022-12-29T10:00:19;9.80;99.90
10572;DHT22;5334;48.928;12.704;2022-12-29T10:03:10;9.60;99.90
10572;DHT22;5334;48.928;12.704;2022-12-29T10:06:08;9.50;99.90
10572;DHT22;5334;48.928;12.704;2022-12-29T10:08:42;9.50;99.90
10572;DHT22;5334;48.928;12.704;2022-12-29T10:14:33;9.40;99.90
10572;DHT22;5334;48.928;12.704;2022-12-29T10:20:00;9.70;99.90
10572;DHT22;5334;48.928;12.704;2022-12-29T10:22:55;9.70;99.90
10572;DHT22;5334;48.928;12.704;2022-12-29T10:25:26;9.80;99.90
10572;DHT22;5334;48.928;12.704;2022-12-29T10:27:56;9.80;99.90
10572;DHT22;5334;48.928;12.704;2022-12-29T10:30:24;9.70;99.90
10572;DHT22;5334;48.928;12.704;2022-12-29T10:32:54;9.60;99.90
10572;DHT22;5334;48.928;12.704;2022-12-29T10:35:28;9.50;99.90
10572;DHT22;5334;48.928;12.704;2022-12-29T10:43:30;9.20;99.90
10572;DHT22;5334;48.928;12.704;2022-12-29T10:46:06;9.10;99.90
10572;DHT22;5334;48.928;12.704;2022-12-29T10:48:34;9.00;99.90
10572;DHT22;5334;48.928;12.704;2022-12-29T10:51:05;8.90;99.90
10572;DHT22;5334;48.928;12.704;2022-12-29T10:56:33;8.70;99.90
10572;DHT22;5334;48.928;12.704;2022-12-29T10:59:10;8.60;99.90
10572;DHT22;5334;48.928;12.704;2022-12-29T11:01:53;8.40;99.90
10572;DHT22;5334;48.928;12.704;2022-12-29T11:07:24;8.30;99.90
10572;DHT22;5334;48.928;12.704;2022-12-29T11:09:51;8.20;99.90
10572;DHT22;5334;48.928;12.704;2022-12-29T11:14:46;8.30;99.90
10572;DHT22;5334;48.928;12.704;2022-12-29T11:17:16;8.40;99.90
10572;DHT22;5334;48.928;12.704;2022-12-29T11:19:43;8.50;99.90
10572;DHT22;5334;48.928;12.704;2022-12-29T11:22:19;8.60;99.90
10572;DHT22;5334;48.928;12.704;2022-12-29T11:24:47;8.60;99.90
10572;DHT22;5334;48.928;12.704;2022-12-29T11:29:44;8.70;99.90
10572;DHT22;5334;48.928;12.704;2022-12-29T11:32:24;8.70;99.90
10572;DHT22;5334;48.928;12.704;2022-12-29T11:34:51;8.70;99.90
10572;DHT22;5334;48.928;12.704;2022-12-29T11:37:18;8.80;99.90
10572;DHT22;5334;48.928;12.704;2022-12-29T11:39:57;8.90;99.90
10572;DHT22;5334;48.928;12.704;2022-12-29T11:42:36;9.00;99.90
10572;DHT22;5334;48.928;12.704;2022-12-29T11:45:06;9.10;99.90
10572;DHT22;5334;48.928;12.704;2022-12-29T11:47:32;9.10;99.90
10572;DHT22;5334;48.928;12.704;2022-12-29T11:50:01;9.10;99.90
10572;DHT22;5334;48.928;12.704;2022-12-29T11:52:31;9.00;99.90
10572;DHT22;5334;48.928;12.704;2022-12-29T11:54:59;9.00;99.90
10572;DHT22;5334;48.928;12.704;2022-12-29T11:57:26;9.00;99.90
10572;DHT22;5334;48.928;12.704;2022-12-29T11:59:54;9.20;99.90
10572;DHT22;5334;48.928;12.704;2022-12-29T12:05:11;9.80;99.90
10572;DHT22;5334;48.928;12.704;2022-12-29T12:07:44;9.70;99.90
10572;DHT22;5334;48.928;12.704;2022-12-29T12:10:21;9.70;99.90
10572;DHT22;5334;48.928;12.704;2022-12-29T12:13:18;9.60;99.90
10572;DHT22;5334;48.928;12.704;2022-12-29T12:27:18;11.90;99.90
10572;DHT22;5334;48.928;12.704;2022-12-29T12:35:13;10.50;99.90
10572;DHT22;5334;48.928;12.704;2022-12-29T12:46:09;10.00;99.90
10572;DHT22;5334;48.928;12.704;2022-12-29T12:59:33;13.10;99.90
10572;DHT22;5334;48.928;12.704;2022-12-29T13:13:13;13.30;99.90
10572;DHT22;5334;48.928;12.704;2022-12-29T13:18:47;13.20;99.90
10572;DHT22;5334;48.928;12.704;2022-12-29T13:27:16;13.50;99.90
10572;DHT22;5334;48.928;12.704;2022-12-29T13:38:24;12.60;99.90
10572;DHT22;5334;48.928;12.704;2022-12-29T13:41:02;11.90;99.90
10572;DHT22;5334;48.928;12.704;2022-12-29T13:43:31;11.50;99.90
10572;DHT22;5334;48.928;12.704;2022-12-29T13:46:10;11.20;99.90
10572;DHT22;5334;48.928;12.704;2022-12-29T13:48:44;10.90;99.90
10572;DHT22;5334;48.928;12.704;2022-12-29T13:51:11;10.70;99.90
10572;DHT22;5334;48.928;12.704;2022-12-29T14:02:46;10.40;99.90
10572;DHT22;5334;48.928;12.704;2022-12-29T14:05:26;10.30;99.90
10572;DHT22;5334;48.928;12.704;2022-12-29T14:08:03;10.20;99.90
10572;DHT22;5334;48.928;12.704;2022-12-29T14:10:33;10.10;99.90
10572;DHT22;5334;48.928;12.704;2022-12-29T14:13:14;10.00;99.90
10572;DHT22;5334;48.928;12.704;2022-12-29T14:15:43;9.90;99.90
10572;DHT22;5334;48.928;12.704;2022-12-29T14:18:13;9.80;99.90
10572;DHT22;5334;48.928;12.704;2022-12-29T14:20:53;9.70;99.90
10572;DHT22;5334;48.928;12.704;2022-12-29T14:23:35;9.60;99.90
10572;DHT22;5334;48.928;12.704;2022-12-29T14:28:39;9.50;99.90
10572;DHT22;5334;48.928;12.704;2022-12-29T14:36:42;9.50;99.90
10572;DHT22;5334;48.928;12.704;2022-12-29T14:39:31;9.60;99.90
10572;DHT22;5334;48.928;12.704;2022-12-29T14:49:47;9.20;99.90
10572;DHT22;5334;48.928;12.704;2022-12-29T14:54:59;9.20;99.90
10572;DHT22;5334;48.928;12.704;2022-12-29T14:57:34;9.20;99.90
10572;DHT22;5334;48.928;12.704;2022-12-29T15:00:15;9.10;99.90
10572;DHT22;5334;48.928;12.704;2022-12-29T15:02:47;9.10;99.90
10572;DHT22;5334;48.928;12.704;2022-12-29T15:08:04;9.00;99.90
10572;DHT22;5334;48.928;12.704;2022-12-29T15:10:36;9.00;99.90
10572;DHT22;5334;48.928;12.704;2022-12-29T15:13:05;8.90;99.90
10572;DHT22;5334;48.928;12.704;2022-12-29T15:15:37;8.90;99.90
10572;DHT22;5334;48.928;12.704;2022-12-29T15:18:35;8.90;99.90
10572;DHT22;5334;48.928;12.704;2022-12-29T15:21:05;9.00;99.90
10572;DHT22;5334;48.928;12.704;2022-12-29T15:23:33;9.00;99.90
10572;DHT22;5334;48.928;12.704;2022-12-29T15:28:27;9.00;99.90
10572;DHT22;5334;48.928;12.704;2022-12-29T15:31:03;9.00;99.90
10572;DHT22;5334;48.928;12.704;2022-12-29T15:33:29;8.90;99.90
10572;DHT22;5334;48.928;12.704;2022-12-29T15:35:57;8.90;99.90
10572;DHT22;5334;48.928;12.704;2022-12-29T15:38:29;8.80;99.90
10572;DHT22;5334;48.928;12.704;2022-12-29T15:40:58;8.80;99.90
10572;DHT22;5334;48.928;12.704;2022-12-29T15:46:03;8.80;99.90
10572;DHT22;5334;48.928;12.704;2022-12-29T15:48:30;8.80;99.90
10572;DHT22;5334;48.928;12.704;2022-12-29T15:50:56;8.80;99.90
10572;DHT22;5334;48.928;12.704;2022-12-29T15:53:27;8.80;99.90
10572;DHT22;5334;48.928;12.704;2022-12-29T15:55:57;8.90;99.90
10572;DHT22;5334;48.928;12.704;2022-12-29T15:58:27;8.90;99.90
10572;DHT22;5334;48.928;12.704;2022-12-29T16:00:55;8.90;99.90
10572;DHT22;5334;48.928;12.704;2022-12-29T16:03:23;8.90;99.90
10572;DHT22;5334;48.928;12.704;2022-12-29T16:05:53;8.90;99.90
10572;DHT22;5334;48.928;12.704;2022-12-29T16:10:54;8.90;99.90
10572;DHT22;5334;48.928;12.704;2022-12-29T16:13:28;8.90;99.90
10572;DHT22;5334;48.928;12.704;2022-12-29T16:16:27;8.80;99.90
10572;DHT22;5334;48.928;12.704;2022-12-29T16:18:54;8.80;99.90
10572;DHT22;5334;48.928;12.704;2022-12-29T16:21:28;8.80;99.90
10572;DHT22;5334;48.928;12.704;2022-12-29T16:23:55;8.70;99.90
10572;DHT22;5334;48.928;12.704;2022-12-29T16:26:23;8.70;99.90
10572;DHT22;5334;48.928;12.704;2022-12-29T16:29:07;8.70;99.90
10572;DHT22;5334;48.928;12.704;2022-12-29T16:31:47;8.60;99.90
10572;DHT22;5334;48.928;12.704;2022-12-29T16:39:42;8.30;99.90
10572;DHT22;5334;48.928;12.704;2022-12-29T16:50:32;8.10;99.90
10572;DHT22;5334;48.928;12.704;2022-12-29T16:52:59;8.10;99.90
10572;DHT22;5334;48.928;12.704;2022-12-29T16:55:25;8.00;99.90
10572;DHT22;5334;48.928;12.704;2022-12-29T16:57:53;8.00;99.90
10572;DHT22;5334;48.928;12.704;2022-12-29T17:00:23;8.00;99.90
10572;DHT22;5334;48.928;12.704;2022-12-29T17:02:51;8.00;99.90
10572;DHT22;5334;48.928;12.704;2022-12-29T17:05:19;7.90;99.90
10572;DHT22;5334;48.928;12.704;2022-12-29T17:07:46;7.90;99.90
10572;DHT22;5334;48.928;12.704;2022-12-29T17:10:12;7.90;99.90
10572;DHT22;5334;48.928;12.704;2022-12-29T17:12:41;7.90;99.90
10572;DHT22;5334;48.928;12.704;2022-12-29T17:15:18;7.90;99.90
10572;DHT22;5334;48.928;12.704;2022-12-29T17:17:47;7.90;99.90
10572;DHT22;5334;48.928;12.704;2022-12-29T17:20:23;7.90;99.90
10572;DHT22;5334;48.928;12.704;2022-12-29T17:22:51;7.90;99.90
10572;DHT22;5334;48.928;12.704;2022-12-29T17:25:31;7.90;99.90
10572;DHT22;5334;48.928;12.704;2022-12-29T17:28:00;7.90;99.90
10572;DHT22;5334;48.928;12.704;2022-12-29T17:30:27;7.90;99.90
10572;DHT22;5334;48.928;12.704;2022-12-29T17:32:59;7.90;99.90
10572;DHT22;5334;48.928;12.704;2022-12-29T17:35:26;7.90;99.90
10572;DHT22;5334;48.928;12.704;2022-12-29T17:37:52;7.90;99.90
10572;DHT22;5334;48.928;12.704;2022-12-29T17:40:21;7.90;99.90
10572;DHT22;5334;48.928;12.704;2022-12-29T17:42:48;7.90;99.90
10572;DHT22;5334;48.928;12.704;2022-12-29T17:45:21;7.90;99.90
10572;DHT22;5334;48.928;12.704;2022-12-29T17:47:47;8.00;99.90
10572;DHT22;5334;48.928;12.704;2022-12-29T17:50:16;8.00;99.90
10572;DHT22;5334;48.928;12.704;2022-12-29T17:52:42;8.00;99.90
10572;DHT22;5334;48.928;12.704;2022-12-29T17:55:17;8.00;99.90
10572;DHT22;5334;48.928;12.704;2022-12-29T17:57:44;8.00;99.90
10572;DHT22;5334;48.928;12.704;2022-12-29T18:00:15;7.90;99.90
10572;DHT22;5334;48.928;12.704;2022-12-29T18:02:41;8.00;99.90
10572;DHT22;5334;48.928;12.704;2022-12-29T18:05:20;8.00;99.90
10572;DHT22;5334;48.928;12.704;2022-12-29T18:07:47;7.90;99.90
10572;DHT22;5334;48.928;12.704;2022-12-29T18:10:14;7.90;99.90
10572;DHT22;5334;48.928;12.704;2022-12-29T18:12:43;7.90;99.90
10572;DHT22;5334;48.928;12.704;2022-12-29T18:15:22;7.90;99.90
10572;DHT22;5334;48.928;12.704;2022-12-29T18:17:48;7.90;99.90
10572;DHT22;5334;48.928;12.704;2022-12-29T18:20:14;7.90;99.90
10572;DHT22;5334;48.928;12.704;2022-12-29T18:22:41;8.00;99.90
10572;DHT22;5334;48.928;12.704;2022-12-29T18:25:39;8.00;99.90
10572;DHT22;5334;48.928;12.704;2022-12-29T18:28:07;8.00;99.90
10572;DHT22;5334;48.928;12.704;2022-12-29T18:30:33;8.00;99.90
10572;DHT22;5334;48.928;12.704;2022-12-29T18:32:59;8.10;99.90
10572;DHT22;5334;48.928;12.704;2022-12-29T18:35:39;8.10;99.90
10572;DHT22;5334;48.928;12.704;2022-12-29T18:38:06;8.00;99.90
10572;DHT22;5334;48.928;12.704;2022-12-29T18:40:33;8.00;99.90
10572;DHT22;5334;48.928;12.704;2022-12-29T18:43:00;8.00;99.90
10572;DHT22;5334;48.928;12.704;2022-12-29T18:45:26;7.90;99.90
10572;DHT22;5334;48.928;12.704;2022-12-29T18:47:52;8.00;99.90
10572;DHT22;5334;48.928;12.704;2022-12-29T18:50:17;7.90;99.90
10572;DHT22;5334;48.928;12.704;2022-12-29T18:52:44;7.80;99.90
10572;DHT22;5334;48.928;12.704;2022-12-29T18:55:22;7.90;99.90
10572;DHT22;5334;48.928;12.704;2022-12-29T18:57:48;7.90;99.90
10572;DHT22;5334;48.928;12.704;2022-12-29T19:00:15;7.90;99.90
10572;DHT22;5334;48.928;12.704;2022-12-29T19:02:42;7.90;99.90
10572;DHT22;5334;48.928;12.704;2022-12-29T19:07:50;7.90;99.90
10572;DHT22;5334;48.928;12.704;2022-12-29T19:10:17;7.90;99.90
10572;DHT22;5334;48.928;12.704;2022-12-29T19:12:43;7.90;99.90
10572;DHT22;5334;48.928;12.704;2022-12-29T19:15:30;7.90;99.90